Time;durP1;ratioP1;P1;durP2;ratioP2;P2;SDS_P1;SDS_P2;PMS_P1;PMS_P2;Temp;Humidity;BMP_temperature;BMP_pressure;BME280_temperature;BME280_humidity;BME280_pressure;Samples;Min_cycle;Max_cycle;Signal;HPM_P1;HPM_P2
2021/11/04 00:01:29;;;;;;;21.73;15.02;;;;;;;10.11;100.00;96388.28;4955342;29;20158;-75
2021/11/04 00:03:54;;;;;;;22.23;14.57;;;;;;;10.08;100.00;96393.59;4955472;29;20027;-74
2021/11/04 00:06:20;;;;;;;19.73;13.88;;;;;;;10.11;100.00;96399.22;4955085;29;20031;-75
2021/11/04 00:08:45;;;;;;;18.05;13.65;;;;;;;10.15;100.00;96377.50;4955268;29;20035;-75
2021/11/04 00:11:10;;;;;;;21.67;15.30;;;;;;;10.09;100.00;96360.47;4955045;29;20031;-76
2021/11/04 00:13:36;;;;;;;17.23;12.57;;;;;;;10.08;100.00;96367.09;4955072;29;20023;-76
2021/11/04 00:16:01;;;;;;;18.35;13.52;;;;;;;9.91;100.00;96371.84;4946523;29;20063;-75
2021/11/04 00:18:27;;;;;;;19.35;14.60;;;;;;;9.91;100.00;96355.44;4936138;29;20536;-76
2021/11/04 00:20:52;;;;;;;19.58;13.98;;;;;;;9.93;100.00;96345.00;4936994;29;20039;-76
2021/11/04 00:23:18;;;;;;;22.88;14.27;;;;;;;10.02;100.00;96334.81;4937180;29;20043;-75
2021/11/04 00:25:43;;;;;;;20.98;14.55;;;;;;;10.02;100.00;96323.91;4935993;29;20047;-76
2021/11/04 00:28:09;;;;;;;22.75;14.90;;;;;;;10.05;100.00;96345.09;4938681;29;20051;-76
2021/11/04 00:30:34;;;;;;;22.13;14.77;;;;;;;10.01;100.00;96327.75;4944096;29;20527;-76
2021/11/04 00:33:00;;;;;;;23.08;16.67;;;;;;;9.95;100.00;96329.09;4938625;29;20043;-76
2021/11/04 00:35:25;;;;;;;22.50;15.63;;;;;;;9.88;100.00;96317.88;4935395;29;20027;-75
2021/11/04 00:37:51;;;;;;;22.38;15.02;;;;;;;9.88;100.00;96320.59;4935421;29;20007;-75
2021/11/04 00:40:19;;;;;;;21.50;14.45;;;;;;;9.89;100.00;96314.03;4935145;29;20031;-75
2021/11/04 00:42:45;;;;;;;20.77;14.95;;;;;;;9.85;100.00;96307.63;4935216;29;20024;-75
2021/11/04 00:45:11;;;;;;;24.52;16.45;;;;;;;9.91;100.00;96292.63;4935123;29;20024;-74
2021/11/04 00:47:37;;;;;;;21.42;14.85;;;;;;;9.89;100.00;96284.78;4935044;29;20035;-75
2021/11/04 00:50:05;;;;;;;20.90;15.32;;;;;;;9.95;100.00;96286.19;4935145;29;20402;-74
2021/11/04 00:52:30;;;;;;;20.38;15.45;;;;;;;10.01;100.00;96284.06;4935046;29;20392;-75
2021/11/04 00:54:56;;;;;;;20.88;14.80;;;;;;;10.08;100.00;96300.72;4934969;29;20028;-75
2021/11/04 00:57:22;;;;;;;21.88;14.40;;;;;;;10.10;100.00;96306.63;4935289;29;20039;-75
2021/11/04 00:59:48;;;;;;;20.17;14.15;;;;;;;10.09;100.00;96346.00;4934990;29;20039;-76
2021/11/04 01:02:13;;;;;;;22.13;14.57;;;;;;;9.96;100.00;96341.63;4934843;29;20031;-75
2021/11/04 01:04:39;;;;;;;20.38;14.52;;;;;;;9.97;100.00;96303.03;4934505;29;20067;-75
2021/11/04 01:07:04;;;;;;;22.85;15.57;;;;;;;9.99;100.00;96284.38;4934614;29;20031;-76
2021/11/04 01:09:30;;;;;;;26.23;16.15;;;;;;;9.99;100.00;96261.75;4934790;29;20162;-76
2021/11/04 01:11:55;;;;;;;22.33;15.85;;;;;;;10.04;100.00;96272.47;4934902;29;20031;-76
2021/11/04 01:14:22;;;;;;;22.15;16.45;;;;;;;9.94;100.00;96279.13;4934681;29;20040;-76
2021/11/04 01:16:47;;;;;;;22.45;14.90;;;;;;;9.87;100.00;96278.03;4934612;29;20030;-76
2021/11/04 01:19:14;;;;;;;23.85;16.75;;;;;;;9.87;100.00;96264.38;4935076;29;20023;-75
2021/11/04 01:21:40;;;;;;;23.25;15.48;;;;;;;9.98;100.00;96258.22;4934858;29;20481;-76
2021/11/04 01:24:06;;;;;;;25.23;16.55;;;;;;;9.97;100.00;96242.94;4934560;29;20027;-76
2021/11/04 01:26:32;;;;;;;22.15;14.63;;;;;;;9.97;100.00;96261.25;4934831;29;20535;-75
2021/11/04 01:28:57;;;;;;;21.55;14.63;;;;;;;10.01;100.00;96263.00;4939150;29;20027;-76
2021/11/04 01:31:23;;;;;;;21.60;14.55;;;;;;;10.08;100.00;96273.41;4955368;29;20027;-75
2021/11/04 01:33:48;;;;;;;20.45;14.82;;;;;;;10.09;100.00;96274.97;4945108;29;20028;-75
2021/11/04 01:36:14;;;;;;;24.83;16.17;;;;;;;10.12;100.00;96268.84;4934602;29;20517;-75
2021/11/04 01:38:39;;;;;;;18.77;14.30;;;;;;;10.09;100.00;96280.44;4934628;29;20457;-75
2021/11/04 01:41:04;;;;;;;22.40;14.57;;;;;;;10.04;100.00;96262.34;4933922;29;20027;-76
2021/11/04 01:43:30;;;;;;;18.30;13.93;;;;;;;10.04;100.00;96247.88;4933938;29;20028;-75
2021/11/04 01:45:55;;;;;;;18.73;13.63;;;;;;;10.03;100.00;96252.53;4925622;29;20039;-74
2021/11/04 01:48:21;;;;;;;20.75;15.07;;;;;;;10.06;100.00;96240.13;4954592;29;20050;-75
2021/11/04 01:50:47;;;;;;;20.60;13.02;;;;;;;10.06;100.00;96240.94;4935619;29;20457;-75
2021/11/04 01:53:12;;;;;;;20.35;13.32;;;;;;;10.07;100.00;96231.63;4952646;29;20023;-75
2021/11/04 01:55:39;;;;;;;18.48;12.70;;;;;;;10.07;100.00;96222.63;4953016;29;20041;-75
2021/11/04 01:58:05;;;;;;;17.88;12.93;;;;;;;10.11;100.00;96207.16;4952904;29;20086;-75
2021/11/04 02:00:32;;;;;;;19.25;12.80;;;;;;;10.10;100.00;96200.09;4952850;29;20435;-75
2021/11/04 02:03:24;;;;;;;19.17;13.02;;;;;;;10.10;100.00;96184.50;4952875;29;20455;-76
2021/11/04 02:06:11;;;;;;;16.70;12.18;;;;;;;10.10;100.00;96161.84;4952491;29;20039;-76
2021/11/04 02:08:40;;;;;;;17.65;12.27;;;;;;;10.10;100.00;96151.72;4952515;29;20035;-76
2021/11/04 02:11:14;;;;;;;19.77;13.77;;;;;;;10.05;100.00;96170.28;4935412;29;20122;-76
2021/11/04 02:13:46;;;;;;;19.52;12.55;;;;;;;10.03;100.00;96164.31;4949426;29;20519;-75
2021/11/04 02:16:14;;;;;;;17.30;13.30;;;;;;;10.07;100.00;96162.53;4953732;29;20031;-77
2021/11/04 02:18:40;;;;;;;18.63;13.50;;;;;;;10.06;100.00;96156.25;4941429;29;20026;-75
2021/11/04 02:21:08;;;;;;;18.27;12.65;;;;;;;10.03;100.00;96143.28;4960501;29;20504;-76
2021/11/04 02:24:15;;;;;;;22.42;12.73;;;;;;;10.09;100.00;96125.53;4935150;29;20540;-76
2021/11/04 02:26:42;;;;;;;22.25;13.45;;;;;;;10.08;100.00;96136.81;4865309;29;20046;-76
2021/11/04 02:29:08;;;;;;;21.48;13.00;;;;;;;10.04;100.00;96153.06;4933189;29;20044;-76
2021/11/04 02:31:35;;;;;;;19.85;13.00;;;;;;;10.06;100.00;96126.22;4933516;29;20087;-75
2021/11/04 02:34:01;;;;;;;20.10;14.23;;;;;;;10.06;100.00;96112.56;4933426;29;20027;-76
2021/11/04 02:36:27;;;;;;;20.98;14.00;;;;;;;9.92;100.00;96125.72;4933216;29;20374;-76
2021/11/04 02:38:53;;;;;;;21.20;14.43;;;;;;;9.91;100.00;96123.31;4933301;29;20027;-76
2021/11/04 02:41:20;;;;;;;22.15;14.35;;;;;;;9.94;100.00;96092.59;4932715;29;20035;-76
2021/11/04 02:43:46;;;;;;;19.73;13.45;;;;;;;9.91;100.00;96087.81;4933098;29;20034;-75
2021/11/04 02:46:13;;;;;;;20.25;13.45;;;;;;;9.87;100.00;96097.81;4933430;29;20056;-75
2021/11/04 02:48:40;;;;;;;20.98;13.57;;;;;;;9.82;100.00;96100.75;4933895;29;20034;-75
2021/11/04 02:51:06;;;;;;;19.08;13.07;;;;;;;9.92;100.00;96086.69;4933080;29;20095;-75
2021/11/04 02:53:32;;;;;;;22.13;14.90;;;;;;;9.87;100.00;96093.16;4933123;29;20456;-75
2021/11/04 02:55:57;;;;;;;20.45;14.43;;;;;;;9.90;100.00;96097.94;4933294;29;20437;-75
2021/11/04 02:58:25;;;;;;;22.13;13.70;;;;;;;9.96;100.00;96102.03;4933285;29;20449;-76
2021/11/04 03:00:58;;;;;;;19.75;13.55;;;;;;;9.96;100.00;96101.28;4933314;29;21088;-75
2021/11/04 03:03:23;;;;;;;21.42;14.70;;;;;;;9.92;100.00;96109.34;4932837;29;20020;-75
2021/11/04 03:05:48;;;;;;;18.67;13.05;;;;;;;9.93;100.00;96110.16;4934602;29;20024;-76
2021/11/04 03:08:14;;;;;;;20.50;13.00;;;;;;;9.97;100.00;96111.03;4940955;29;20040;-76
2021/11/04 03:10:40;;;;;;;18.08;13.35;;;;;;;9.89;100.00;96112.75;4916026;29;20035;-75
2021/11/04 03:13:06;;;;;;;18.13;13.88;;;;;;;9.94;100.00;96131.63;4933414;29;20043;-76
2021/11/04 03:15:45;;;;;;;18.55;13.25;;;;;;;9.99;100.00;96138.84;4933006;29;20110;-76
2021/11/04 03:18:11;;;;;;;17.83;13.20;;;;;;;9.97;100.00;96146.56;4933108;29;20032;-76
2021/11/04 03:20:38;;;;;;;19.75;13.32;;;;;;;9.97;100.00;96150.09;4915655;29;20028;-76
2021/11/04 03:23:05;;;;;;;19.48;13.07;;;;;;;9.95;100.00;96148.81;4932676;29;20023;-75
2021/11/04 03:25:31;;;;;;;20.85;12.50;;;;;;;10.00;100.00;96156.81;4933054;29;20066;-76
2021/11/04 03:27:57;;;;;;;16.52;12.68;;;;;;;9.92;100.00;96171.34;4933613;29;20043;-76
2021/11/04 03:30:26;;;;;;;18.42;13.20;;;;;;;9.92;100.00;96160.41;4943829;29;20067;-76
2021/11/04 03:32:53;;;;;;;20.90;14.15;;;;;;;9.91;100.00;96156.88;4942609;29;20081;-75
2021/11/04 03:35:20;;;;;;;18.90;12.73;;;;;;;9.94;100.00;96169.88;4916731;29;20389;-75
2021/11/04 03:37:48;;;;;;;19.52;13.18;;;;;;;9.93;100.00;96168.25;4932561;29;20031;-76
2021/11/04 03:40:15;;;;;;;18.52;13.45;;;;;;;9.92;100.00;96150.31;4932728;29;20063;-75
2021/11/04 03:42:42;;;;;;;18.02;13.27;;;;;;;9.97;100.00;96154.75;4932652;29;20055;-77
2021/11/04 03:45:08;;;;;;;16.38;12.32;;;;;;;9.98;100.00;96157.16;4932659;29;20039;-75
2021/11/04 03:47:35;;;;;;;14.82;11.77;;;;;;;9.98;100.00;96148.16;4932517;29;20055;-75
2021/11/04 03:50:02;;;;;;;18.23;12.30;;;;;;;10.14;100.00;96163.63;4932373;29;20034;-76
2021/11/04 03:52:29;;;;;;;18.65;13.73;;;;;;;10.02;100.00;96160.78;4933397;29;20119;-75
2021/11/04 03:54:55;;;;;;;19.70;13.50;;;;;;;10.12;100.00;96173.22;4936127;29;20034;-75
2021/11/04 03:57:25;;;;;;;15.65;12.43;;;;;;;10.18;100.00;96167.25;4936791;29;20028;-75
2021/11/04 03:59:51;;;;;;;17.25;12.05;;;;;;;10.19;100.00;96168.88;4936066;29;20111;-76
2021/11/04 04:02:17;;;;;;;17.63;12.95;;;;;;;10.22;100.00;96175.59;4935635;29;20126;-75
2021/11/04 04:04:51;;;;;;;16.40;12.77;;;;;;;10.21;100.00;96182.19;4918286;29;20107;-75
2021/11/04 04:07:17;;;;;;;19.70;14.05;;;;;;;10.23;100.00;96173.66;4935827;29;20035;-76
2021/11/04 04:09:43;;;;;;;20.77;14.10;;;;;;;10.22;100.00;96183.78;4939897;29;20035;-75
2021/11/04 04:12:08;;;;;;;20.73;15.23;;;;;;;10.19;100.00;96181.72;4935754;29;20476;-75
2021/11/04 04:14:34;;;;;;;23.27;14.50;;;;;;;10.25;100.00;96163.97;4918289;29;20027;-74
2021/11/04 04:16:59;;;;;;;18.25;14.43;;;;;;;10.28;100.00;96168.78;4935376;29;20040;-75
2021/11/04 04:19:24;;;;;;;21.63;14.75;;;;;;;10.25;100.00;96180.38;4935271;29;20015;-75
2021/11/04 04:21:50;;;;;;;22.02;15.52;;;;;;;10.19;100.00;96170.78;4935066;29;20489;-75
2021/11/04 04:24:15;;;;;;;24.02;17.08;;;;;;;10.19;100.00;96182.53;4935484;29;20078;-76
2021/11/04 04:26:41;;;;;;;21.80;15.20;;;;;;;10.26;100.00;96172.97;4935684;29;20035;-75
2021/11/04 04:29:06;;;;;;;25.08;15.88;;;;;;;10.22;100.00;96197.44;4934824;29;20043;-75
2021/11/04 04:31:31;;;;;;;19.75;15.32;;;;;;;10.25;100.00;96188.56;4935228;29;20028;-75
2021/11/04 04:33:57;;;;;;;23.77;15.60;;;;;;;10.21;100.00;96204.06;4917770;29;20039;-75
2021/11/04 04:36:22;;;;;;;27.63;17.55;;;;;;;10.19;100.00;96189.91;4935294;29;20436;-74
2021/11/04 04:38:48;;;;;;;27.17;18.23;;;;;;;10.18;100.00;96212.91;4935140;29;20036;-75
2021/11/04 04:41:13;;;;;;;30.35;19.45;;;;;;;10.20;100.00;96206.00;4949000;29;20090;-75
2021/11/04 04:43:39;;;;;;;21.70;15.23;;;;;;;10.35;100.00;96217.41;4954615;29;20032;-75
2021/11/04 04:46:04;;;;;;;24.80;16.52;;;;;;;10.37;100.00;96220.63;4953213;29;20385;-75
2021/11/04 04:48:29;;;;;;;15.73;10.85;;;;;;;10.59;100.00;96221.00;4954282;29;20031;-75
2021/11/04 04:50:55;;;;;;;16.45;7.45;;;;;;;10.91;100.00;96237.72;4948182;29;20062;-75
2021/11/04 04:53:20;;;;;;;9.27;4.53;;;;;;;11.30;100.00;96237.09;4943220;29;20070;-76
2021/11/04 04:55:45;;;;;;;8.27;4.63;;;;;;;11.54;100.00;96237.06;4953803;29;20093;-75
2021/11/04 04:58:11;;;;;;;6.78;3.67;;;;;;;11.72;100.00;96262.28;4939210;29;20396;-75
2021/11/04 05:00:36;;;;;;;32.83;21.15;;;;;;;11.72;100.00;96246.66;4935269;29;20507;-75
2021/11/04 05:03:05;;;;;;;8.93;5.07;;;;;;;11.77;100.00;96234.69;4935800;29;20472;-75
2021/11/04 05:05:30;;;;;;;18.08;8.05;;;;;;;11.74;100.00;96225.22;4917446;29;20043;-75
2021/11/04 05:07:55;;;;;;;12.07;3.47;;;;;;;11.78;100.00;96226.09;4935108;29;20078;-75
2021/11/04 05:10:21;;;;;;;10.02;3.40;;;;;;;11.88;100.00;96226.75;4948824;29;20023;-75
2021/11/04 05:12:46;;;;;;;7.97;2.67;;;;;;;11.88;100.00;96222.09;4953639;29;20079;-75
2021/11/04 05:15:12;;;;;;;4.50;2.00;;;;;;;12.01;100.00;96226.41;4950294;29;20028;-76
2021/11/04 05:17:37;;;;;;;7.30;1.75;;;;;;;12.04;100.00;96227.63;4934428;29;20540;-76
2021/11/04 05:20:04;;;;;;;4.90;1.80;;;;;;;12.09;100.00;96238.38;4934402;29;20031;-76
2021/11/04 05:22:30;;;;;;;9.77;2.97;;;;;;;12.11;100.00;96244.28;4934340;29;20408;-76
2021/11/04 05:24:56;;;;;;;12.05;4.95;;;;;;;12.16;100.00;96269.50;4934325;29;20032;-76
2021/11/04 05:27:21;;;;;;;5.10;1.85;;;;;;;12.20;100.00;96272.38;4934969;29;20540;-76
2021/11/04 05:29:46;;;;;;;2.08;1.10;;;;;;;12.32;100.00;96280.53;4933263;29;20056;-76
2021/11/04 05:32:12;;;;;;;3.38;0.93;;;;;;;12.31;100.00;96290.72;4933774;29;20469;-76
2021/11/04 05:34:39;;;;;;;7.47;3.75;;;;;;;12.37;100.00;96299.50;4916442;29;20012;-76
2021/11/04 05:37:05;;;;;;;6.35;1.50;;;;;;;12.38;100.00;96303.84;4934059;29;20129;-75
2021/11/04 05:39:30;;;;;;;5.85;1.30;;;;;;;12.31;100.00;96306.34;4934169;29;20028;-76
2021/11/04 05:41:56;;;;;;;3.63;1.20;;;;;;;12.36;100.00;96306.13;4934276;29;20085;-75
2021/11/04 05:44:22;;;;;;;3.78;1.15;;;;;;;12.34;100.00;96308.44;4934675;29;20135;-76
2021/11/04 05:46:47;;;;;;;3.80;1.85;;;;;;;12.32;100.00;96314.25;4933850;29;20497;-76
2021/11/04 05:49:13;;;;;;;4.75;1.25;;;;;;;12.23;100.00;96318.28;4934196;29;20032;-76
2021/11/04 05:51:38;;;;;;;3.67;1.30;;;;;;;12.20;100.00;96328.00;4934070;29;20035;-75
2021/11/04 05:54:03;;;;;;;3.58;1.20;;;;;;;12.22;100.00;96349.56;4935147;29;20508;-75
2021/11/04 05:56:29;;;;;;;4.47;1.30;;;;;;;12.23;100.00;96340.19;4939705;29;20043;-74
2021/11/04 05:58:54;;;;;;;4.13;1.17;;;;;;;12.22;100.00;96335.84;4938546;29;20492;-75
2021/11/04 06:01:21;;;;;;;4.85;1.75;;;;;;;12.09;100.00;96331.56;4934063;29;20016;-73
2021/11/04 06:03:49;;;;;;;5.07;1.02;;;;;;;12.12;100.00;96344.56;4934942;29;20027;-76
2021/11/04 06:06:15;;;;;;;4.93;1.63;;;;;;;12.10;100.00;96360.53;4935739;29;20393;-74
2021/11/04 06:08:40;;;;;;;3.58;1.40;;;;;;;12.05;100.00;96360.78;4934176;29;20030;-75
2021/11/04 06:11:05;;;;;;;2.85;1.23;;;;;;;12.01;100.00;96371.63;4933932;29;20438;-75
2021/11/04 06:13:31;;;;;;;2.33;1.00;;;;;;;11.99;100.00;96373.13;4933592;29;20012;-75
2021/11/04 06:15:56;;;;;;;8.65;1.85;;;;;;;11.91;100.00;96376.75;4934026;29;20027;-75
2021/11/04 06:18:21;;;;;;;5.65;1.25;;;;;;;11.90;100.00;96384.22;4934095;29;20461;-75
2021/11/04 06:20:47;;;;;;;4.95;1.40;;;;;;;11.90;100.00;96402.59;4946283;29;20062;-75
2021/11/04 06:23:13;;;;;;;3.90;1.13;;;;;;;11.90;100.00;96408.88;4953160;29;20499;-75
2021/11/04 06:25:38;;;;;;;7.70;1.40;;;;;;;11.95;100.00;96427.00;4952537;29;20063;-75
2021/11/04 06:28:04;;;;;;;4.25;1.30;;;;;;;12.04;100.00;96425.75;4952769;29;20504;-75
2021/11/04 06:30:29;;;;;;;3.90;1.20;;;;;;;12.08;100.00;96439.56;4952399;29;20527;-75
2021/11/04 06:32:55;;;;;;;3.40;1.20;;;;;;;12.13;100.00;96450.31;4952859;29;20058;-75
2021/11/04 06:35:20;;;;;;;2.63;1.17;;;;;;;12.14;100.00;96454.66;4952212;29;20543;-75
2021/11/04 06:37:46;;;;;;;7.18;1.38;;;;;;;12.12;100.00;96454.22;4922585;29;20016;-75
2021/11/04 06:40:13;;;;;;;6.20;1.27;;;;;;;12.09;100.00;96443.94;4943976;29;20039;-75
2021/11/04 06:42:39;;;;;;;7.57;1.50;;;;;;;12.09;100.00;96460.38;4952303;29;20031;-75
2021/11/04 06:45:05;;;;;;;5.47;1.30;;;;;;;12.11;100.00;96463.56;4934326;29;20027;-75
2021/11/04 06:47:42;;;;;;;11.85;1.40;;;;;;;12.14;100.00;96473.84;4933075;29;20075;-75
2021/11/04 06:50:09;;;;;;;6.70;1.25;;;;;;;12.20;100.00;96475.22;4939778;29;20027;-74
2021/11/04 06:52:42;;;;;;;9.05;1.75;;;;;;;12.14;100.00;96463.69;4939505;29;20040;-75
2021/11/04 06:55:08;;;;;;;5.50;1.73;;;;;;;12.08;100.00;96486.19;4940590;29;20024;-74
2021/11/04 06:57:39;;;;;;;8.27;1.90;;;;;;;12.13;100.00;96494.16;4941885;29;20365;-75
2021/11/04 07:00:06;;;;;;;5.20;1.42;;;;;;;12.22;100.00;96508.56;4940858;29;20026;-76
2021/11/04 07:02:35;;;;;;;6.13;1.50;;;;;;;12.19;100.00;96504.56;4942175;29;20023;-75
2021/11/04 07:05:04;;;;;;;8.05;2.35;;;;;;;12.32;100.00;96524.56;4952459;29;20030;-75
2021/11/04 07:07:45;;;;;;;4.05;1.45;;;;;;;12.36;100.00;96530.97;4946344;29;20032;-76
2021/11/04 07:10:13;;;;;;;3.45;1.38;;;;;;;12.47;100.00;96542.31;4939974;29;20102;-75
2021/11/04 07:12:45;;;;;;;10.32;1.75;;;;;;;12.48;100.00;96550.19;4942523;29;20162;-75
2021/11/04 07:15:17;;;;;;;10.10;1.95;;;;;;;12.56;100.00;96553.97;4941209;29;20015;-77
2021/11/04 07:17:44;;;;;;;6.25;1.40;;;;;;;12.60;100.00;96569.38;4947419;29;20042;-75
2021/11/04 07:20:14;;;;;;;6.07;1.48;;;;;;;12.62;100.00;96580.03;4946051;29;20032;-75
2021/11/04 07:22:47;;;;;;;5.32;1.40;;;;;;;12.91;100.00;96579.78;4940453;29;20052;-73
2021/11/04 07:25:18;;;;;;;4.60;1.67;;;;;;;13.04;100.00;96600.59;4939655;29;20536;-76
2021/11/04 07:27:55;;;;;;;3.65;1.17;;;;;;;13.40;97.85;96594.28;4946445;28;20035;-75
2021/11/04 07:30:23;;;;;;;4.72;1.30;;;;;;;14.29;93.48;96589.31;4946021;29;20086;-79
2021/11/04 07:32:59;;;;;;;7.70;1.50;;;;;;;15.56;82.07;96609.03;4943884;29;20023;-75
2021/11/04 07:35:41;;;;;;;4.32;1.45;;;;;;;17.24;71.79;96615.38;4943430;29;20032;-74
2021/11/04 07:38:09;;;;;;;7.85;1.70;;;;;;;18.56;69.48;96624.25;4943791;29;20118;-75
2021/11/04 07:40:35;;;;;;;9.60;1.55;;;;;;;18.97;64.12;96639.72;4943871;29;20023;-76
2021/11/04 07:43:00;;;;;;;5.82;1.67;;;;;;;17.97;68.28;96642.53;4944788;29;20092;-78
2021/11/04 07:45:28;;;;;;;6.63;1.58;;;;;;;16.60;70.48;96630.09;4946384;29;20025;-78
2021/11/04 07:47:54;;;;;;;10.63;1.35;;;;;;;15.80;75.79;96647.34;4946950;29;20035;-78
2021/11/04 07:50:31;;;;;;;5.55;1.40;;;;;;;15.44;78.04;96628.41;4942010;29;20074;-78
2021/11/04 07:53:04;;;;;;;7.18;1.35;;;;;;;14.92;79.71;96635.03;4939809;29;20070;-77
2021/11/04 07:55:29;;;;;;;4.75;1.50;;;;;;;14.72;81.00;96647.09;4936703;29;20027;-77
2021/11/04 07:57:55;;;;;;;8.90;1.65;;;;;;;15.62;78.43;96635.16;4955827;29;20026;-78
2021/11/04 08:00:22;;;;;;;5.07;1.27;;;;;;;17.60;69.38;96663.75;4946601;28;20505;-78
2021/11/04 08:02:48;;;;;;;10.07;1.58;;;;;;;17.72;67.09;96663.53;4954840;28;20031;-77
2021/11/04 08:05:17;;;;;;;6.03;1.42;;;;;;;19.29;61.71;96673.28;4952846;29;20022;-78
2021/11/04 08:07:43;;;;;;;6.38;1.67;;;;;;;19.41;60.54;96683.31;4941477;29;20485;-78
2021/11/04 08:10:14;;;;;;;6.53;1.67;;;;;;;19.76;61.11;96680.81;4945822;29;20035;-76
2021/11/04 08:12:43;;;;;;;5.18;1.73;;;;;;;19.46;59.39;96694.03;4942007;29;20535;-78
2021/11/04 08:15:10;;;;;;;6.35;1.63;;;;;;;20.16;58.25;96702.84;4945162;29;20079;-75
2021/11/04 08:17:36;;;;;;;6.38;1.40;;;;;;;19.60;58.85;96696.94;4940107;28;20028;-74
2021/11/04 08:20:07;;;;;;;7.78;1.60;;;;;;;19.50;58.16;96700.41;4945717;28;20027;-75
2021/11/04 08:22:32;;;;;;;6.03;1.70;;;;;;;20.82;54.65;96698.00;4944937;28;20051;-77
2021/11/04 08:24:59;;;;;;;6.40;2.05;;;;;;;20.17;55.85;96698.09;4941869;29;20088;-76
2021/11/04 08:27:25;;;;;;;9.25;1.80;;;;;;;20.10;55.15;96712.75;4944865;29;20027;-76
2021/11/04 08:29:50;;;;;;;8.43;1.90;;;;;;;19.62;55.90;96689.00;4936109;29;20044;-77
2021/11/04 08:32:16;;;;;;;6.47;1.60;;;;;;;19.40;56.67;96703.88;4942565;29;20027;-76
2021/11/04 08:34:42;;;;;;;3.85;1.52;;;;;;;19.41;57.28;96697.16;4942411;29;20034;-75
2021/11/04 08:37:10;;;;;;;4.53;1.55;;;;;;;19.38;56.99;96703.47;4940685;28;20067;-75
2021/11/04 08:39:35;;;;;;;4.65;1.73;;;;;;;19.71;56.27;96708.91;4940774;28;20024;-75
2021/11/04 08:42:02;;;;;;;4.00;1.75;;;;;;;20.03;56.36;96718.25;4939051;28;20757;-75
2021/11/04 08:44:28;;;;;;;6.82;1.48;;;;;;;20.26;54.47;96727.16;4942110;28;20029;-74
2021/11/04 08:46:54;;;;;;;5.95;1.73;;;;;;;21.55;51.75;96735.50;4942537;29;20027;-77
2021/11/04 08:49:20;;;;;;;4.30;1.65;;;;;;;22.36;48.02;96752.19;4942081;28;20118;-85
2021/11/04 08:51:47;;;;;;;7.47;1.73;;;;;;;22.78;47.47;96759.63;4952744;28;20083;-84
2021/11/04 08:54:13;;;;;;;13.70;2.15;;;;;;;20.62;51.13;96750.34;4950868;29;20142;-82
2021/11/04 08:56:39;;;;;;;6.10;1.85;;;;;;;21.53;51.26;96770.50;4950212;29;20114;-81
2021/11/04 08:59:05;;;;;;;6.90;2.20;;;;;;;22.27;49.69;96774.09;4946055;28;20019;-83
2021/11/04 09:01:32;;;;;;;8.73;2.20;;;;;;;23.07;49.80;96785.44;4950209;28;20502;-81
2021/11/04 09:03:58;;;;;;;5.43;1.85;;;;;;;21.47;53.63;96794.34;4951621;29;20031;-82
2021/11/04 09:06:23;;;;;;;4.20;1.35;;;;;;;20.35;58.66;96796.25;4947301;28;20476;-80
2021/11/04 09:08:49;;;;;;;5.85;1.98;;;;;;;18.62;62.44;96794.50;4948915;29;20035;-80
2021/11/04 09:11:14;;;;;;;7.93;1.77;;;;;;;18.37;65.80;96793.31;4950755;29;20027;-79
2021/11/04 09:13:40;;;;;;;6.50;1.60;;;;;;;17.26;68.25;96789.91;4950461;29;20039;-79
2021/11/04 09:16:05;;;;;;;6.13;1.63;;;;;;;16.23;73.58;96786.19;4953218;29;20477;-78
2021/11/04 09:18:31;;;;;;;9.02;1.77;;;;;;;17.10;69.48;96792.78;4953344;29;20027;-78
2021/11/04 09:20:56;;;;;;;6.85;1.88;;;;;;;17.18;69.08;96788.19;4935583;29;20043;-79
2021/11/04 09:23:22;;;;;;;8.60;2.40;;;;;;;17.43;66.88;96799.69;4951343;29;20074;-79
2021/11/04 09:25:48;;;;;;;8.40;1.83;;;;;;;18.05;65.31;96810.25;4954931;29;20032;-80
2021/11/04 09:28:25;;;;;;;4.22;1.60;;;;;;;19.69;59.68;96780.63;4933033;29;20035;-80
2021/11/04 09:30:51;;;;;;;5.35;1.80;;;;;;;20.70;54.16;96810.34;4923869;29;20138;-79
2021/11/04 09:33:17;;;;;;;7.65;1.90;;;;;;;20.49;53.41;96826.06;4952123;29;20612;-85
2021/11/04 09:35:42;;;;;;;9.32;1.85;;;;;;;19.77;54.71;96810.03;4936150;29;20035;-83
2021/11/04 09:38:08;;;;;;;7.97;1.95;;;;;;;19.42;55.57;96818.03;4952975;29;20058;-85
2021/11/04 09:40:34;;;;;;;4.57;1.75;;;;;;;20.22;52.78;96815.19;4951195;29;20053;-84
2021/11/04 09:43:00;;;;;;;8.23;2.00;;;;;;;21.26;50.61;96826.50;4950933;29;20027;-79
2021/11/04 09:45:26;;;;;;;11.20;2.25;;;;;;;21.31;50.15;96837.22;4951929;29;20027;-82
2021/11/04 09:47:51;;;;;;;6.60;1.70;;;;;;;21.36;49.87;96830.50;4950709;28;20117;-83
2021/11/04 09:50:19;;;;;;;4.80;1.50;;;;;;;20.63;50.60;96809.50;4949696;28;20122;-82
2021/11/04 09:52:46;;;;;;;4.85;1.55;;;;;;;20.74;48.60;96829.81;4934648;29;20066;-82
2021/11/04 09:55:18;;;;;;;8.23;1.90;;;;;;;20.63;49.00;96845.63;4951364;29;20023;-82
2021/11/04 09:57:48;;;;;;;11.43;2.40;;;;;;;20.91;48.74;96840.22;4955803;29;20038;-83
2021/11/04 10:00:15;;;;;;;9.70;2.42;;;;;;;21.70;46.56;96847.69;4953563;29;20027;-84
2021/11/04 10:02:44;;;;;;;8.48;2.30;;;;;;;21.72;45.09;96845.28;4954553;29;20050;-84
2021/11/04 10:05:12;;;;;;;5.32;1.73;;;;;;;21.15;46.89;96842.34;4934932;29;20086;-85
2021/11/04 10:07:48;;;;;;;7.10;1.70;;;;;;;20.78;46.14;96850.88;4939724;29;20027;-85
2021/11/04 10:10:19;;;;;;;6.32;1.70;;;;;;;20.35;47.76;96857.34;4954487;29;20031;-86
2021/11/04 10:13:14;;;;;;;6.97;2.17;;;;;;;20.68;46.01;96867.50;4954277;29;20090;-84
2021/11/04 10:15:41;;;;;;;10.77;2.10;;;;;;;21.09;44.52;96859.78;4938796;29;20047;-81
2021/11/04 10:18:13;;;;;;;10.18;2.28;;;;;;;20.17;46.08;96845.28;4949916;29;20493;-80
2021/11/04 10:20:39;;;;;;;12.68;2.58;;;;;;;21.08;45.90;96872.88;4951378;29;20042;-80
2021/11/04 10:23:12;;;;;;;8.48;1.88;;;;;;;21.48;44.68;96873.88;4953173;29;20086;-83
2021/11/04 10:25:39;;;;;;;7.53;2.22;;;;;;;21.41;45.31;96868.25;4950348;29;20070;-80
2021/11/04 10:28:20;;;;;;;6.20;1.70;;;;;;;20.91;45.60;96873.59;4950674;29;20428;-83
2021/11/04 10:30:46;;;;;;;9.10;1.75;;;;;;;22.12;42.64;96872.00;4952882;29;20520;-83
2021/11/04 10:33:22;;;;;;;7.45;1.70;;;;;;;21.71;43.92;96894.59;4952464;29;20106;-82
2021/11/04 10:35:54;;;;;;;10.35;2.22;;;;;;;22.07;43.21;96875.19;4933573;29;20023;-82
2021/11/04 10:38:20;;;;;;;7.10;1.52;;;;;;;21.45;44.02;96877.44;4951054;29;20031;-81
2021/11/04 10:40:45;;;;;;;10.07;2.00;;;;;;;21.42;43.13;96890.16;4967526;29;20078;-80
2021/11/04 10:43:11;;;;;;;9.07;2.20;;;;;;;21.28;43.64;96876.16;4961720;29;20050;-80
2021/11/04 10:45:38;;;;;;;10.05;1.92;;;;;;;21.55;42.82;96868.31;4950780;29;20065;-82
2021/11/04 10:48:22;;;;;;;8.63;2.25;;;;;;;21.60;43.17;96890.19;4933252;29;20035;-80
2021/11/04 10:50:49;;;;;;;6.30;1.80;;;;;;;21.49;43.47;96901.28;4946772;29;20087;-76
2021/11/04 10:53:22;;;;;;;6.65;1.90;;;;;;;21.38;43.03;96892.13;4953099;29;20686;-85
2021/11/04 10:56:16;;;;;;;7.78;2.22;;;;;;;21.25;42.97;96896.44;4950790;28;20031;-83
2021/11/04 10:58:50;;;;;;;8.30;1.90;;;;;;;21.94;42.75;96902.63;4952561;29;20028;-86
2021/11/04 11:01:31;;;;;;;8.02;2.05;;;;;;;21.84;43.52;96908.94;4956668;28;20027;-87
2021/11/04 11:04:02;;;;;;;5.60;1.80;;;;;;;21.60;42.41;96918.84;4958369;29;20034;-85
2021/11/04 11:06:29;;;;;;;9.05;2.35;;;;;;;19.80;46.39;96906.41;4956601;29;20105;-85
2021/11/04 11:08:59;;;;;;;11.48;1.67;;;;;;;18.86;48.56;96915.94;4962652;29;20019;-81
2021/11/04 11:11:24;;;;;;;6.13;1.50;;;;;;;19.20;48.01;96922.34;4972129;29;20019;-80
2021/11/04 11:13:50;;;;;;;6.57;1.60;;;;;;;19.29;47.02;96922.06;4961917;29;20046;-85
2021/11/04 11:16:17;;;;;;;4.90;2.00;;;;;;;18.65;47.94;96915.63;4968671;29;20047;-79
2021/11/04 11:18:43;;;;;;;8.55;1.63;;;;;;;18.60;48.44;96913.19;4973456;29;20066;-80
2021/11/04 11:21:09;;;;;;;7.63;2.03;;;;;;;17.61;50.22;96933.59;4977311;29;20035;-80
2021/11/04 11:23:37;;;;;;;8.45;1.95;;;;;;;17.60;48.68;96926.47;4958774;29;20039;-79